createdAt,value
2018-11-21T00:00:04.836Z,1.00
2018-11-21T00:01:05.002Z,1.00
2018-11-21T00:02:04.956Z,1.00
2018-11-21T00:03:04.754Z,0.90
2018-11-21T00:04:04.768Z,1.00
2018-11-21T00:05:04.362Z,1.00
2018-11-21T00:06:04.761Z,1.00
2018-11-21T00:07:04.338Z,1.00
2018-11-21T00:08:04.440Z,1.00
2018-11-21T00:09:04.833Z,0.90
2018-11-21T00:10:04.893Z,1.00
2018-11-21T00:11:04.700Z,1.00
2018-11-21T00:12:04.701Z,1.00
2018-11-21T00:13:04.742Z,1.00
2018-11-21T00:14:04.375Z,0.90
2018-11-21T00:15:04.700Z,1.00
2018-11-21T00:16:05.145Z,1.00
2018-11-21T00:17:05.229Z,1.00
2018-11-21T00:18:05.061Z,1.00
2018-11-21T00:19:04.691Z,1.00
2018-11-21T00:20:04.770Z,1.00
2018-11-21T00:21:04.384Z,1.00
2018-11-21T00:22:04.864Z,1.00
2018-11-21T00:23:04.344Z,1.00
2018-11-21T00:24:04.701Z,1.00
2018-11-21T00:25:04.877Z,1.00
2018-11-21T00:26:04.215Z,1.00
2018-11-21T00:27:04.872Z,1.00
2018-11-21T00:28:10.022Z,1.00
2018-11-21T00:29:04.422Z,1.00
2018-11-21T00:30:04.359Z,1.00
2018-11-21T00:31:04.452Z,1.00
2018-11-21T00:32:04.420Z,1.00
2018-11-21T00:33:04.999Z,1.00
2018-11-21T00:34:04.908Z,1.00
2018-11-21T00:35:04.980Z,1.00
2018-11-21T00:36:05.033Z,1.00
2018-11-21T00:37:04.585Z,1.00
2018-11-21T00:38:04.584Z,1.00
2018-11-21T00:39:05.097Z,1.00
2018-11-21T00:40:04.699Z,1.00
2018-11-21T00:41:04.386Z,1.00
2018-11-21T00:42:04.363Z,1.00
2018-11-21T00:43:04.450Z,1.00
2018-11-21T00:44:04.489Z,1.00
2018-11-21T00:45:04.484Z,1.00
2018-11-21T00:46:04.845Z,1.00
2018-11-21T00:47:04.248Z,1.00
2018-11-21T00:48:04.806Z,1.00
2018-11-21T00:49:05.157Z,1.00
2018-11-21T00:50:04.943Z,1.00
2018-11-21T00:51:04.484Z,1.00
2018-11-21T00:52:04.538Z,1.00
2018-11-21T00:53:09.736Z,1.00
2018-11-21T00:54:05.084Z,1.00
2018-11-21T00:55:04.994Z,1.00
2018-11-21T00:56:04.239Z,1.00
2018-11-21T00:57:04.279Z,1.00
2018-11-21T00:58:04.319Z,1.00
2018-11-21T00:59:04.574Z,1.00
2018-11-21T01:00:04.880Z,1.00
2018-11-21T01:01:05.104Z,1.00
2018-11-21T01:02:05.011Z,1.00
2018-11-21T01:03:04.475Z,1.00
2018-11-21T01:04:04.677Z,1.00
2018-11-21T01:05:04.986Z,1.00
2018-11-21T01:06:04.232Z,1.00
2018-11-21T01:07:04.790Z,1.10
2018-11-21T01:08:04.393Z,1.10
2018-11-21T01:09:04.770Z,1.10
2018-11-21T01:10:04.297Z,1.10
2018-11-21T01:11:04.827Z,1.00
2018-11-21T01:12:04.434Z,1.10
2018-11-21T01:13:04.395Z,1.10
2018-11-21T01:14:04.841Z,1.10
2018-11-21T01:15:04.411Z,1.00
2018-11-21T01:16:04.423Z,1.10
2018-11-21T01:17:04.583Z,1.00
2018-11-21T01:18:04.657Z,1.10
2018-11-21T01:19:04.653Z,1.00
2018-11-21T01:20:04.985Z,1.00
2018-11-21T01:21:04.687Z,1.00
2018-11-21T01:22:04.321Z,1.10
2018-11-21T01:23:04.804Z,1.00
2018-11-21T01:24:04.789Z,1.00
2018-11-21T01:25:05.032Z,1.00
2018-11-21T01:26:04.395Z,1.00
2018-11-21T01:27:04.446Z,1.10
2018-11-21T01:28:09.387Z,1.00
2018-11-21T01:29:04.625Z,1.00
2018-11-21T01:30:04.995Z,1.00
2018-11-21T01:31:04.859Z,1.00
2018-11-21T01:32:04.336Z,1.00
2018-11-21T01:33:09.551Z,1.00
2018-11-21T01:34:04.370Z,1.00
2018-11-21T01:35:04.758Z,1.00
2018-11-21T01:36:04.782Z,1.00
2018-11-21T01:37:04.693Z,1.00
2018-11-21T01:38:04.796Z,1.00
2018-11-21T01:39:04.393Z,1.00
2018-11-21T01:40:04.426Z,1.00
2018-11-21T01:41:04.664Z,1.00
2018-11-21T01:42:04.572Z,1.00
2018-11-21T01:43:04.621Z,1.00
2018-11-21T01:44:04.709Z,1.00
2018-11-21T01:45:04.746Z,1.00
2018-11-21T01:46:04.872Z,1.10
2018-11-21T01:47:04.957Z,1.00
2018-11-21T01:48:10.017Z,1.10
2018-11-21T01:49:04.381Z,1.10
2018-11-21T01:50:04.381Z,1.10
2018-11-21T01:51:04.488Z,1.10
2018-11-21T01:52:05.165Z,1.10
2018-11-21T01:53:05.112Z,1.00
2018-11-21T01:54:04.195Z,1.00
2018-11-21T01:55:04.149Z,1.00
2018-11-21T01:56:04.403Z,1.00
2018-11-21T01:57:04.764Z,1.00
2018-11-21T01:58:04.868Z,1.00
2018-11-21T01:59:04.948Z,1.00
2018-11-21T02:00:05.046Z,1.00
2018-11-21T02:01:04.316Z,1.00
2018-11-21T02:02:04.765Z,1.00
2018-11-21T02:03:04.272Z,1.00
2018-11-21T02:04:04.582Z,1.00
2018-11-21T02:05:04.652Z,1.00
2018-11-21T02:06:04.684Z,1.00
2018-11-21T02:07:04.905Z,1.00
2018-11-21T02:08:05.038Z,1.00
2018-11-21T02:09:04.381Z,1.00
2018-11-21T02:10:04.404Z,1.00
2018-11-21T02:11:04.550Z,1.00
2018-11-21T02:12:04.521Z,1.00
2018-11-21T02:13:04.526Z,1.00
2018-11-21T02:14:05.096Z,1.00
2018-11-21T02:15:04.274Z,1.00
2018-11-21T02:16:04.283Z,1.00
2018-11-21T02:17:04.287Z,1.00
2018-11-21T02:18:04.305Z,1.00
2018-11-21T02:19:04.370Z,1.00
2018-11-21T02:20:04.406Z,1.00
2018-11-21T02:21:04.510Z,1.00
2018-11-21T02:22:04.641Z,1.00
2018-11-21T02:23:04.167Z,1.00
2018-11-21T02:24:04.694Z,1.00
2018-11-21T02:25:04.951Z,1.00
2018-11-21T02:26:04.966Z,1.00
2018-11-21T02:27:05.116Z,1.00
2018-11-21T02:28:10.041Z,1.00
2018-11-21T02:29:04.317Z,1.00
2018-11-21T02:30:04.425Z,1.00
2018-11-21T02:31:04.619Z,1.00
2018-11-21T02:32:04.289Z,1.00
2018-11-21T02:33:04.703Z,1.00
2018-11-21T02:34:04.704Z,1.00
2018-11-21T02:35:05.004Z,1.00
2018-11-21T02:36:04.973Z,1.00
2018-11-21T02:37:04.904Z,1.00
2018-11-21T02:38:04.346Z,1.00
2018-11-21T02:39:04.357Z,1.00
2018-11-21T02:40:04.534Z,1.00
2018-11-21T02:41:05.149Z,1.00
2018-11-21T02:42:04.289Z,1.00
2018-11-21T02:43:04.652Z,1.00
2018-11-21T02:44:05.002Z,1.00
2018-11-21T02:45:04.286Z,1.00
2018-11-21T02:46:04.441Z,1.00
2018-11-21T02:47:04.586Z,1.00
2018-11-21T02:48:09.262Z,1.00
2018-11-21T02:49:04.601Z,1.00
2018-11-21T02:50:04.249Z,1.00
2018-11-21T02:51:04.347Z,1.00
2018-11-21T02:52:04.361Z,1.00
2018-11-21T02:53:04.590Z,1.00
2018-11-21T02:54:05.067Z,1.00
2018-11-21T02:55:04.432Z,1.00
2018-11-21T02:56:04.545Z,1.00
2018-11-21T02:57:04.829Z,1.00
2018-11-21T02:58:04.915Z,1.00
2018-11-21T02:59:04.265Z,1.00
2018-11-21T03:00:04.273Z,1.00
2018-11-21T03:01:04.220Z,1.00
2018-11-21T03:02:04.316Z,1.00
2018-11-21T03:03:04.682Z,1.00
2018-11-21T03:04:04.887Z,1.00
2018-11-21T03:05:05.085Z,1.00
2018-11-21T03:06:04.353Z,1.00
2018-11-21T03:07:04.351Z,1.00
2018-11-21T03:08:04.340Z,1.00
2018-11-21T03:09:04.523Z,1.00
2018-11-21T03:10:04.548Z,1.00
2018-11-21T03:11:04.531Z,1.00
2018-11-21T03:12:04.557Z,1.00
2018-11-21T03:13:04.696Z,1.00
2018-11-21T03:14:04.577Z,1.00
2018-11-21T03:15:04.563Z,1.00
2018-11-21T03:16:05.124Z,1.00
2018-11-21T03:17:04.395Z,1.00
2018-11-21T03:18:04.342Z,1.00
2018-11-21T03:19:04.536Z,1.00
2018-11-21T03:20:04.725Z,1.00
2018-11-21T03:21:04.661Z,1.00
2018-11-21T03:22:05.139Z,1.00
2018-11-21T03:23:05.059Z,1.00
2018-11-21T03:24:04.905Z,1.00
2018-11-21T03:25:04.592Z,1.00
2018-11-21T03:26:04.630Z,1.00
2018-11-21T03:27:04.663Z,1.00
2018-11-21T03:28:09.940Z,1.00
2018-11-21T03:29:04.299Z,1.00
2018-11-21T03:30:04.267Z,1.00
2018-11-21T03:31:04.904Z,1.00
2018-11-21T03:32:04.915Z,1.00
2018-11-21T03:33:04.890Z,1.00
2018-11-21T03:34:04.252Z,1.00
2018-11-21T03:35:04.371Z,1.00
2018-11-21T03:36:04.381Z,1.00
2018-11-21T03:37:05.113Z,1.00
2018-11-21T03:38:05.028Z,1.00
2018-11-21T03:39:05.057Z,1.00
2018-11-21T03:40:04.429Z,1.00
2018-11-21T03:41:04.700Z,1.00
2018-11-21T03:42:04.134Z,1.00
2018-11-21T03:43:04.746Z,1.00
2018-11-21T03:44:04.907Z,1.00
2018-11-21T03:45:04.858Z,1.00
2018-11-21T03:46:04.518Z,1.00
2018-11-21T03:47:04.526Z,1.00
2018-11-21T03:48:05.011Z,1.00
2018-11-21T03:49:04.338Z,1.00
2018-11-21T03:50:04.301Z,1.00
2018-11-21T03:51:04.456Z,1.00
2018-11-21T03:52:04.488Z,1.00
2018-11-21T03:53:04.549Z,1.00
2018-11-21T03:54:04.412Z,1.00
2018-11-21T03:55:05.022Z,1.00
2018-11-21T03:56:04.538Z,1.00
2018-11-21T03:57:04.475Z,1.00
2018-11-21T03:58:04.586Z,1.00
2018-11-21T03:59:04.895Z,1.00
2018-11-21T04:00:04.921Z,1.00
2018-11-21T04:01:04.907Z,0.90
2018-11-21T04:02:04.979Z,1.00
2018-11-21T04:03:05.183Z,1.00
2018-11-21T04:04:04.486Z,1.00
2018-11-21T04:05:04.704Z,0.90
2018-11-21T04:06:04.973Z,0.90
2018-11-21T04:07:04.170Z,1.00
2018-11-21T04:08:04.339Z,1.00
2018-11-21T04:09:04.734Z,1.00
2018-11-21T04:10:04.730Z,1.00
2018-11-21T04:11:04.621Z,0.90
2018-11-21T04:12:04.259Z,1.00
2018-11-21T04:13:04.410Z,1.00
2018-11-21T04:14:04.471Z,1.00
2018-11-21T04:15:04.969Z,1.00
2018-11-21T04:16:04.953Z,1.00
2018-11-21T04:17:04.299Z,1.00
2018-11-21T04:18:04.407Z,1.00
2018-11-21T04:19:04.417Z,1.00
2018-11-21T04:20:05.009Z,1.00
2018-11-21T04:21:04.158Z,1.00
2018-11-21T04:22:04.371Z,1.00
2018-11-21T04:23:04.400Z,1.00
2018-11-21T04:24:04.547Z,1.00
2018-11-21T04:25:04.710Z,1.00
2018-11-21T04:26:04.417Z,1.00
2018-11-21T04:27:04.446Z,1.00
2018-11-21T04:28:10.124Z,1.00
2018-11-21T04:29:04.580Z,1.00
2018-11-21T04:30:04.531Z,1.00
2018-11-21T04:31:04.633Z,1.00
2018-11-21T04:32:04.845Z,1.00
2018-11-21T04:33:04.667Z,1.00
2018-11-21T04:34:04.737Z,1.00
2018-11-21T04:35:04.924Z,1.00
2018-11-21T04:36:04.945Z,1.00
2018-11-21T04:37:04.125Z,1.00
2018-11-21T04:38:05.249Z,1.00
2018-11-21T04:39:05.121Z,1.00
2018-11-21T04:40:05.081Z,1.00
2018-11-21T04:41:04.709Z,1.00
2018-11-21T04:42:04.557Z,1.00
2018-11-21T04:43:04.152Z,1.00
2018-11-21T04:44:04.257Z,1.00
2018-11-21T04:45:04.828Z,1.00
2018-11-21T04:46:04.242Z,1.00
2018-11-21T04:47:04.186Z,1.00
2018-11-21T04:48:04.786Z,1.00
2018-11-21T04:49:04.871Z,1.00
2018-11-21T04:50:04.735Z,1.00
2018-11-21T04:51:04.923Z,1.00
2018-11-21T04:52:04.184Z,1.00
2018-11-21T04:53:04.399Z,1.00
2018-11-21T04:54:04.490Z,1.00
2018-11-21T04:55:04.862Z,1.00
2018-11-21T04:56:05.210Z,1.00
2018-11-21T04:57:04.780Z,1.00
2018-11-21T04:58:04.852Z,1.00
2018-11-21T04:59:05.018Z,1.00
2018-11-21T05:00:05.088Z,1.00
2018-11-21T05:01:05.127Z,1.00
2018-11-21T05:02:05.182Z,1.00
2018-11-21T05:03:04.146Z,1.00
2018-11-21T05:04:04.173Z,1.00
2018-11-21T05:05:04.676Z,1.00
2018-11-21T05:06:04.668Z,1.00
2018-11-21T05:07:04.693Z,1.00
2018-11-21T05:08:05.034Z,1.00
2018-11-21T05:09:05.119Z,1.00
2018-11-21T05:10:04.966Z,1.00
2018-11-21T05:11:06.253Z,1.00
2018-11-21T05:12:05.093Z,1.00
2018-11-21T05:13:04.386Z,1.00
2018-11-21T05:14:04.577Z,1.00
2018-11-21T05:15:04.502Z,1.00
2018-11-21T05:16:04.690Z,1.00
2018-11-21T05:17:04.764Z,1.00
2018-11-21T05:18:05.024Z,1.00
2018-11-21T05:19:04.286Z,1.00
2018-11-21T05:20:04.730Z,1.00
2018-11-21T05:21:04.831Z,1.00
2018-11-21T05:22:04.805Z,1.00
2018-11-21T05:23:04.812Z,1.00
2018-11-21T05:24:04.876Z,1.10
2018-11-21T05:25:05.426Z,1.00
2018-11-21T05:26:04.342Z,1.00
2018-11-21T05:27:04.478Z,1.00
2018-11-21T05:28:10.003Z,1.00
2018-11-21T05:29:04.370Z,1.00
2018-11-21T05:30:04.497Z,1.00
2018-11-21T05:31:04.430Z,1.00
2018-11-21T05:32:04.644Z,1.00
2018-11-21T05:33:04.939Z,1.00
2018-11-21T05:34:04.363Z,1.00
2018-11-21T05:35:04.323Z,1.00
2018-11-21T05:36:04.290Z,1.00
2018-11-21T05:37:04.279Z,1.00
2018-11-21T05:38:04.426Z,1.00
2018-11-21T05:39:04.147Z,1.00
2018-11-21T05:40:04.546Z,1.00
2018-11-21T05:41:04.776Z,1.00
2018-11-21T05:42:04.848Z,1.00
2018-11-21T05:43:04.399Z,1.00
2018-11-21T05:44:04.527Z,1.00
2018-11-21T05:45:04.587Z,1.00
2018-11-21T05:46:04.960Z,1.00
2018-11-21T05:47:05.034Z,1.00
2018-11-21T05:48:04.957Z,1.00
2018-11-21T05:49:05.180Z,1.00
2018-11-21T05:50:05.187Z,1.00
2018-11-21T05:51:05.086Z,1.00
2018-11-21T05:52:04.512Z,1.00
2018-11-21T05:53:04.457Z,1.00
2018-11-21T05:54:04.615Z,1.00
2018-11-21T05:55:04.925Z,1.00
2018-11-21T05:56:05.005Z,1.00
2018-11-21T05:57:05.035Z,1.00
2018-11-21T05:58:05.051Z,1.00
2018-11-21T05:59:04.149Z,1.00
2018-11-21T06:00:04.248Z,1.00
2018-11-21T06:01:04.298Z,1.00
2018-11-21T06:02:04.353Z,1.00
2018-11-21T06:03:04.809Z,1.00
2018-11-21T06:04:04.730Z,1.00
2018-11-21T06:05:04.721Z,1.00
2018-11-21T06:06:09.731Z,1.00
2018-11-21T06:07:04.616Z,1.00
2018-11-21T06:08:04.887Z,1.00
2018-11-21T06:09:04.756Z,1.00
2018-11-21T06:10:04.278Z,1.00
2018-11-21T06:11:04.551Z,1.00
2018-11-21T06:12:04.629Z,1.00
2018-11-21T06:13:04.332Z,1.00
2018-11-21T06:14:04.391Z,1.00
2018-11-21T06:15:04.365Z,1.00
2018-11-21T06:16:04.726Z,1.00
2018-11-21T06:17:04.769Z,1.00
2018-11-21T06:18:04.824Z,1.00
2018-11-21T06:19:04.174Z,1.00
2018-11-21T06:20:04.289Z,1.00
2018-11-21T06:21:04.641Z,1.00
2018-11-21T06:22:05.070Z,1.00
2018-11-21T06:23:05.067Z,1.00
2018-11-21T06:24:05.000Z,1.00
2018-11-21T06:25:05.048Z,1.00
2018-11-21T06:26:05.056Z,1.00
2018-11-21T06:27:05.050Z,1.00
2018-11-21T06:28:09.602Z,1.00
2018-11-21T06:29:05.078Z,1.00
2018-11-21T06:30:04.304Z,1.00
2018-11-21T06:31:04.399Z,1.00
2018-11-21T06:32:04.315Z,1.00
2018-11-21T06:33:04.475Z,1.00
2018-11-21T06:34:04.776Z,1.00
2018-11-21T06:35:04.704Z,1.00
2018-11-21T06:36:04.759Z,1.00
2018-11-21T06:37:04.267Z,1.00
2018-11-21T06:38:04.793Z,1.00
2018-11-21T06:39:04.786Z,1.00
2018-11-21T06:40:04.763Z,1.00
2018-11-21T06:41:04.849Z,1.00
2018-11-21T06:42:04.949Z,1.00
2018-11-21T06:43:04.967Z,1.00
2018-11-21T06:44:04.956Z,1.00
2018-11-21T06:45:04.505Z,1.00
2018-11-21T06:46:04.223Z,1.00
2018-11-21T06:47:04.760Z,1.00
2018-11-21T06:48:09.821Z,1.00
2018-11-21T06:49:04.142Z,1.00
2018-11-21T06:50:04.791Z,1.00
2018-11-21T06:51:04.706Z,1.00
2018-11-21T06:52:04.723Z,1.00
2018-11-21T06:53:04.456Z,1.00
2018-11-21T06:54:04.787Z,1.00
2018-11-21T06:55:04.845Z,1.00
2018-11-21T06:56:04.855Z,1.00
2018-11-21T06:57:05.106Z,1.00
2018-11-21T06:58:05.133Z,1.00
2018-11-21T06:59:04.336Z,1.00
2018-11-21T07:00:04.788Z,1.00
2018-11-21T07:01:05.023Z,1.00
2018-11-21T07:02:04.868Z,1.00
2018-11-21T07:03:04.915Z,1.00
2018-11-21T07:04:04.546Z,1.00
2018-11-21T07:05:04.491Z,1.00
2018-11-21T07:06:04.784Z,1.00
2018-11-21T07:07:05.048Z,1.00
2018-11-21T07:08:04.260Z,1.00
2018-11-21T07:09:04.728Z,1.00
2018-11-21T07:10:05.161Z,1.00
2018-11-21T07:11:04.255Z,1.00
2018-11-21T07:12:04.256Z,1.00
2018-11-21T07:13:05.332Z,1.00
2018-11-21T07:14:07.169Z,1.00
2018-11-21T07:15:04.969Z,1.00
2018-11-21T07:16:04.234Z,1.00
2018-11-21T07:17:04.197Z,1.00
2018-11-21T07:18:04.305Z,1.00
2018-11-21T07:19:04.988Z,1.00
2018-11-21T07:20:05.069Z,1.00
2018-11-21T07:21:05.158Z,1.00
2018-11-21T07:22:04.280Z,1.00
2018-11-21T07:23:04.676Z,1.00
2018-11-21T07:24:04.174Z,1.00
2018-11-21T07:25:04.341Z,1.00
2018-11-21T07:26:04.199Z,1.00
2018-11-21T07:27:04.216Z,1.00
2018-11-21T07:28:13.034Z,1.00
2018-11-21T07:29:04.612Z,1.00
2018-11-21T07:30:04.537Z,1.00
2018-11-21T07:31:05.062Z,1.00
2018-11-21T07:32:04.381Z,1.00
2018-11-21T07:33:04.619Z,1.00
2018-11-21T07:34:04.596Z,1.00
2018-11-21T07:35:04.725Z,1.00
2018-11-21T07:36:04.730Z,1.00
2018-11-21T07:37:04.954Z,1.00
2018-11-21T07:38:05.077Z,1.00
2018-11-21T07:39:04.676Z,1.00
2018-11-21T07:40:05.215Z,1.00
2018-11-21T07:41:04.188Z,1.00
2018-11-21T07:42:04.941Z,1.00
2018-11-21T07:43:04.942Z,1.00
2018-11-21T07:44:04.923Z,1.00
2018-11-21T07:45:05.051Z,1.00
2018-11-21T07:46:04.489Z,1.00
2018-11-21T07:47:04.824Z,1.00
2018-11-21T07:48:05.204Z,1.00
2018-11-21T07:49:04.620Z,1.00
2018-11-21T07:50:04.897Z,1.00
2018-11-21T07:51:04.916Z,1.00
2018-11-21T07:52:04.544Z,1.00
2018-11-21T07:53:04.905Z,1.00
2018-11-21T07:54:04.798Z,1.00
2018-11-21T07:55:04.886Z,1.00
2018-11-21T07:56:05.041Z,1.00
2018-11-21T07:57:05.175Z,1.00
2018-11-21T07:58:04.172Z,1.10
2018-11-21T07:59:04.740Z,1.10
2018-11-21T08:00:09.911Z,1.10
2018-11-21T08:01:04.757Z,1.10
2018-11-21T08:02:05.063Z,1.10
2018-11-21T08:03:04.805Z,1.10
2018-11-21T08:04:05.090Z,1.10
2018-11-21T08:05:05.150Z,1.10
2018-11-21T08:06:04.202Z,1.10
2018-11-21T08:07:04.705Z,1.10
2018-11-21T08:08:04.715Z,1.10
2018-11-21T08:09:04.183Z,1.10
2018-11-21T08:10:04.301Z,1.10
2018-11-21T08:11:04.579Z,1.10
2018-11-21T08:12:04.680Z,1.10
2018-11-21T08:13:05.134Z,1.10
2018-11-21T08:14:05.126Z,1.10
2018-11-21T08:15:04.355Z,1.10
2018-11-21T08:16:04.582Z,1.10
2018-11-21T08:17:04.760Z,1.10
2018-11-21T08:18:05.039Z,1.10
2018-11-21T08:19:04.729Z,1.10
2018-11-21T08:20:04.968Z,1.10
2018-11-21T08:21:04.485Z,1.10
2018-11-21T08:22:04.576Z,1.10
2018-11-21T08:23:05.165Z,1.10
2018-11-21T08:24:04.629Z,1.10
2018-11-21T08:25:04.543Z,1.10
2018-11-21T08:26:04.807Z,1.10
2018-11-21T08:27:04.811Z,1.10
2018-11-21T08:28:04.458Z,1.10
2018-11-21T08:29:04.493Z,1.10
2018-11-21T08:30:04.447Z,1.10
2018-11-21T08:31:04.445Z,1.10
2018-11-21T08:32:04.953Z,1.10
2018-11-21T08:33:04.565Z,1.10
2018-11-21T08:34:09.749Z,1.10
2018-11-21T08:35:04.166Z,1.10
2018-11-21T08:36:04.367Z,1.10
2018-11-21T08:37:04.715Z,1.10
2018-11-21T08:38:05.110Z,1.10
2018-11-21T08:39:05.182Z,1.20
2018-11-21T08:40:05.081Z,1.10
2018-11-21T08:41:04.768Z,1.20
2018-11-21T08:42:04.863Z,1.20
2018-11-21T08:43:05.028Z,1.20
2018-11-21T08:44:04.505Z,1.20
2018-11-21T08:45:04.923Z,1.20
2018-11-21T08:46:04.962Z,1.20
2018-11-21T08:47:05.005Z,1.10
2018-11-21T08:48:05.034Z,1.20
2018-11-21T08:49:05.242Z,1.20
2018-11-21T08:50:05.131Z,1.20
2018-11-21T08:51:05.156Z,1.20
2018-11-21T08:52:04.573Z,1.20
2018-11-21T08:53:04.599Z,1.20
2018-11-21T08:54:04.567Z,1.20
2018-11-21T08:55:08.758Z,1.20
2018-11-21T08:56:04.609Z,1.20
2018-11-21T08:57:04.667Z,1.20
2018-11-21T08:58:04.633Z,1.20
2018-11-21T08:59:04.628Z,1.20
2018-11-21T09:00:04.649Z,1.20
2018-11-21T09:01:04.933Z,1.20
2018-11-21T09:02:04.956Z,1.20
2018-11-21T09:03:04.993Z,1.20
2018-11-21T09:04:05.039Z,1.20
2018-11-21T09:05:04.453Z,1.20
2018-11-21T09:06:04.660Z,1.20
2018-11-21T09:07:04.982Z,1.20
2018-11-21T09:08:04.957Z,1.20
2018-11-21T09:09:05.023Z,1.20
2018-11-21T09:10:04.400Z,1.20
2018-11-21T09:11:04.498Z,1.20
2018-11-21T09:12:08.639Z,1.20
2018-11-21T09:13:04.624Z,1.20
2018-11-21T09:14:04.725Z,1.20
2018-11-21T09:15:04.777Z,1.20
2018-11-21T09:16:05.014Z,1.20
2018-11-21T09:17:04.612Z,1.20
2018-11-21T09:18:04.258Z,1.20
2018-11-21T09:19:04.708Z,1.20
2018-11-21T09:20:04.804Z,1.20
2018-11-21T09:21:05.136Z,1.20
2018-11-21T09:22:04.482Z,1.20
2018-11-21T09:23:05.105Z,1.20
2018-11-21T09:24:05.020Z,1.20
2018-11-21T09:25:04.469Z,1.20
2018-11-21T09:26:04.636Z,1.20
2018-11-21T09:27:04.814Z,1.20
2018-11-21T09:28:09.265Z,1.30
2018-11-21T09:29:04.640Z,1.30
2018-11-21T09:30:04.709Z,1.30
2018-11-21T09:31:04.655Z,1.30
2018-11-21T09:32:04.617Z,1.30
2018-11-21T09:33:04.672Z,1.30
2018-11-21T09:34:04.786Z,1.30
2018-11-21T09:35:04.904Z,1.30
2018-11-21T09:36:04.995Z,1.30
2018-11-21T09:37:05.006Z,1.30
2018-11-21T09:38:04.531Z,1.30
2018-11-21T09:39:04.580Z,1.30
2018-11-21T09:40:04.467Z,1.30
2018-11-21T09:41:04.633Z,1.30
2018-11-21T09:42:05.062Z,1.30
2018-11-21T09:43:04.551Z,1.30
2018-11-21T09:44:04.801Z,1.30
2018-11-21T09:45:04.995Z,1.30
2018-11-21T09:46:04.820Z,1.30
2018-11-21T09:47:04.865Z,1.30
2018-11-21T09:48:10.180Z,1.30
2018-11-21T09:49:04.577Z,1.30
2018-11-21T09:50:05.120Z,1.30
2018-11-21T09:51:04.449Z,1.40
2018-11-21T09:52:04.400Z,1.40
2018-11-21T09:53:04.562Z,1.40
2018-11-21T09:54:04.496Z,1.40
2018-11-21T09:55:04.701Z,1.40
2018-11-21T09:56:04.368Z,1.40
2018-11-21T09:57:04.615Z,1.40
2018-11-21T09:58:04.243Z,1.40
2018-11-21T09:59:04.459Z,1.40
2018-11-21T10:00:04.660Z,1.40
2018-11-21T10:01:04.870Z,1.40
2018-11-21T10:02:04.207Z,1.40
2018-11-21T10:03:04.385Z,1.40
2018-11-21T10:04:04.384Z,1.40
2018-11-21T10:05:04.913Z,1.40
2018-11-21T10:06:04.523Z,1.40
2018-11-21T10:07:04.598Z,1.50
2018-11-21T10:08:04.587Z,1.50
2018-11-21T10:09:04.648Z,1.50
2018-11-21T10:10:04.986Z,1.50
2018-11-21T10:11:04.408Z,1.50
2018-11-21T10:12:04.395Z,1.50
2018-11-21T10:13:04.446Z,1.50
2018-11-21T10:14:04.580Z,1.50
2018-11-21T10:15:05.266Z,1.50
2018-11-21T10:16:04.527Z,1.50
2018-11-21T10:17:05.042Z,1.50
2018-11-21T10:18:04.224Z,1.50
2018-11-21T10:19:04.381Z,1.50
2018-11-21T10:20:04.435Z,1.50
2018-11-21T10:21:04.486Z,1.50
2018-11-21T10:22:05.031Z,1.50
2018-11-21T10:23:05.116Z,1.50
2018-11-21T10:24:05.114Z,1.50
2018-11-21T10:25:04.346Z,1.50
2018-11-21T10:26:04.735Z,1.60
2018-11-21T10:27:04.777Z,1.50
2018-11-21T10:28:09.786Z,1.60
2018-11-21T10:29:04.202Z,1.60
2018-11-21T10:30:04.425Z,1.60
2018-11-21T10:31:04.638Z,1.60
2018-11-21T10:32:04.496Z,1.60
2018-11-21T10:33:04.835Z,1.60
2018-11-21T10:34:04.750Z,1.60
2018-11-21T10:35:04.301Z,1.60
2018-11-21T10:36:04.985Z,1.60
2018-11-21T10:37:04.186Z,1.60
2018-11-21T10:38:04.194Z,1.60
2018-11-21T10:39:04.398Z,1.60
2018-11-21T10:40:04.595Z,1.60
2018-11-21T10:41:04.298Z,1.60
2018-11-21T10:42:04.229Z,1.60
2018-11-21T10:43:04.331Z,1.60
2018-11-21T10:44:04.604Z,1.60
2018-11-21T10:45:04.701Z,1.60
2018-11-21T10:46:04.285Z,1.60
2018-11-21T10:47:04.829Z,1.60
2018-11-21T10:48:04.832Z,1.60
2018-11-21T10:49:04.993Z,1.60
2018-11-21T10:50:04.459Z,1.60
2018-11-21T10:51:05.319Z,1.70
2018-11-21T10:52:04.928Z,1.60
2018-11-21T10:53:05.051Z,1.60
2018-11-21T10:54:04.294Z,1.70
2018-11-21T10:55:04.577Z,1.70
2018-11-21T10:56:04.617Z,1.70
2018-11-21T10:57:04.650Z,1.70
2018-11-21T10:58:04.723Z,1.70
2018-11-21T10:59:04.677Z,1.70
2018-11-21T11:00:04.714Z,1.70
2018-11-21T11:01:04.874Z,1.70
2018-11-21T11:02:04.928Z,1.70
2018-11-21T11:03:04.551Z,1.70
2018-11-21T11:04:04.476Z,1.60
2018-11-21T11:05:04.634Z,1.70
2018-11-21T11:06:04.255Z,1.60
2018-11-21T11:07:04.348Z,1.70
2018-11-21T11:08:04.495Z,1.70
2018-11-21T11:09:04.608Z,1.70
2018-11-21T11:10:04.454Z,1.70
2018-11-21T11:11:05.167Z,1.70
2018-11-21T11:12:05.110Z,1.70
2018-11-21T11:13:04.743Z,1.70
2018-11-21T11:14:05.098Z,1.70
2018-11-21T11:15:04.228Z,1.70
2018-11-21T11:16:04.772Z,1.70
2018-11-21T11:17:04.733Z,1.70
2018-11-21T11:18:04.945Z,1.70
2018-11-21T11:19:04.520Z,1.70
2018-11-21T11:20:08.512Z,1.70
2018-11-21T11:21:04.277Z,1.70
2018-11-21T11:22:04.350Z,1.70
2018-11-21T11:23:04.901Z,1.70
2018-11-21T11:24:04.656Z,1.80
2018-11-21T11:25:04.328Z,1.80
2018-11-21T11:26:04.793Z,1.80
2018-11-21T11:27:04.231Z,1.80
2018-11-21T11:28:10.285Z,1.80
2018-11-21T11:29:04.978Z,1.80
2018-11-21T11:30:05.147Z,1.80
2018-11-21T11:31:05.028Z,1.80
2018-11-21T11:32:04.387Z,1.80
2018-11-21T11:33:04.415Z,1.80
2018-11-21T11:34:04.654Z,1.80
2018-11-21T11:35:04.861Z,1.80
2018-11-21T11:36:04.843Z,1.80
2018-11-21T11:37:05.009Z,1.80
2018-11-21T11:38:05.169Z,1.90
2018-11-21T11:39:05.166Z,1.90
2018-11-21T11:40:04.177Z,1.80
2018-11-21T11:41:04.199Z,1.80
2018-11-21T11:42:04.277Z,1.90
2018-11-21T11:43:04.885Z,1.80
2018-11-21T11:44:04.847Z,1.80
2018-11-21T11:45:04.905Z,1.90
2018-11-21T11:46:04.180Z,1.90
2018-11-21T11:47:04.293Z,1.80
2018-11-21T11:48:04.900Z,1.90
2018-11-21T11:49:04.853Z,1.90
2018-11-21T11:50:04.373Z,1.90
2018-11-21T11:51:04.560Z,1.90
2018-11-21T11:52:04.877Z,1.90
2018-11-21T11:53:04.970Z,1.90
2018-11-21T11:54:05.073Z,1.90
2018-11-21T11:55:05.150Z,1.90
2018-11-21T11:56:05.178Z,1.90
2018-11-21T11:57:04.378Z,1.90
2018-11-21T11:58:04.299Z,1.90
2018-11-21T11:59:09.420Z,1.90
2018-11-21T12:00:04.746Z,1.90
2018-11-21T12:01:04.291Z,1.90
2018-11-21T12:02:04.767Z,1.90
2018-11-21T12:03:04.845Z,1.90
2018-11-21T12:04:04.655Z,1.90
2018-11-21T12:05:05.084Z,1.90
2018-11-21T12:06:04.499Z,1.90
2018-11-21T12:07:05.016Z,1.90
2018-11-21T12:08:04.222Z,1.90
2018-11-21T12:09:04.477Z,1.90
2018-11-21T12:10:04.432Z,1.90
2018-11-21T12:11:04.384Z,1.90
2018-11-21T12:12:04.919Z,1.90
2018-11-21T12:13:04.744Z,1.90
2018-11-21T12:14:04.195Z,1.90
2018-11-21T12:15:04.719Z,1.90
2018-11-21T12:16:04.252Z,1.90
2018-11-21T12:17:04.984Z,1.90
2018-11-21T12:18:04.322Z,1.90
2018-11-21T12:19:04.480Z,2.00
2018-11-21T12:20:04.377Z,2.00
2018-11-21T12:21:04.666Z,2.00
2018-11-21T12:22:04.730Z,2.00
2018-11-21T12:23:04.587Z,2.00
2018-11-21T12:24:04.524Z,2.00
2018-11-21T12:25:04.618Z,2.00
2018-11-21T12:26:10.315Z,2.00
2018-11-21T12:27:04.458Z,2.00
2018-11-21T12:28:09.708Z,2.00
2018-11-21T12:29:05.145Z,2.00
2018-11-21T12:30:05.036Z,2.00
2018-11-21T12:31:04.556Z,2.00
2018-11-21T12:32:04.622Z,2.00
2018-11-21T12:33:04.644Z,2.00
2018-11-21T12:34:04.662Z,2.00
2018-11-21T12:35:05.032Z,2.10
2018-11-21T12:36:04.964Z,2.10
2018-11-21T12:37:04.174Z,2.00
2018-11-21T12:38:04.463Z,2.10
2018-11-21T12:39:04.484Z,2.10
2018-11-21T12:40:05.161Z,2.10
2018-11-21T12:41:04.492Z,2.10
2018-11-21T12:42:04.623Z,2.10
2018-11-21T12:43:04.983Z,2.10
2018-11-21T12:44:05.139Z,2.10
2018-11-21T12:45:04.209Z,2.10
2018-11-21T12:46:04.279Z,2.10
2018-11-21T12:47:04.792Z,2.10
2018-11-21T12:48:04.753Z,2.10
2018-11-21T12:49:04.360Z,2.10
2018-11-21T12:50:04.514Z,2.10
2018-11-21T12:51:04.539Z,2.10
2018-11-21T12:52:05.179Z,2.10
2018-11-21T12:53:04.467Z,2.10
2018-11-21T12:54:04.507Z,2.10
2018-11-21T12:55:05.144Z,2.10
2018-11-21T12:56:05.122Z,2.10
2018-11-21T12:57:04.249Z,2.10
2018-11-21T12:58:04.191Z,2.10
2018-11-21T12:59:04.213Z,2.10
2018-11-21T13:00:04.788Z,2.10
2018-11-21T13:01:04.668Z,2.10
2018-11-21T13:02:04.865Z,2.10
2018-11-21T13:03:05.066Z,2.10
2018-11-21T13:04:05.020Z,2.10
2018-11-21T13:05:04.210Z,2.10
2018-11-21T13:06:04.428Z,2.10
2018-11-21T13:07:04.329Z,2.10
2018-11-21T13:08:04.450Z,2.10
2018-11-21T13:09:04.350Z,2.10
2018-11-21T13:10:04.284Z,2.10
2018-11-21T13:11:04.200Z,2.10
2018-11-21T13:12:04.234Z,2.10
2018-11-21T13:13:04.372Z,2.10
2018-11-21T13:14:04.663Z,2.10
2018-11-21T13:15:04.768Z,2.10
2018-11-21T13:16:04.291Z,2.10
2018-11-21T13:17:04.292Z,2.10
2018-11-21T13:18:04.382Z,2.00